Main page
METAR-TAF:

METAR-TAF

Airports :

Sukkur Airport

Sukkur, Pakistan

latitude: 27-43-19N, longitude: 068-47-31E, elevation: 60 m

Current weather observation

The report was made 57 minutes ago, at 01:00 UTC
Wind 4 kt from the Northeast
Temperature 19°C
Humidity 73%
Pressure 1011 hPa
Visibility: 1000 m
Few clouds at a height of 10000 ft
Scattered clouds at a height of 20000 ft
haze

METAR: OPSK 190100Z 05004KT 1000 HZ FEW100 SCT200 19/14 Q1011 TEMPO 1000 BR

Time: 06:57 (01:57 UTC)

Forecast

The report was made 4 hours and 27 minutes ago, at 21:30 UTC
Forecast valid from 19 at 00 UTC to 19 at 24 UTC
Wind kt from the North
Visibility: 0700 m
Few clouds at a height of 3000 ft
haze, mist
Becoming
from 19 at 18 UTC to 19 at 20 UTC
Wind 5 kt from the Northeast
Visibility: 2000 m
smoke

TAF: OPSK 182130Z 1900/1924 05005KT 3000 HZ NSC TMEPO 1900/1904 00000KT 0700 BR FEW030 BECMG 1918/1920 05005KT 2000 FU NSC

Weather observations and forecasts of more than 4000 airports (METAR and TAF reports).

The available stations are represented by yellow and red dots on the map.

Hover mouse over dot to see the name of the station.

Then click to see weather observations and forecasts.

To change the map : click on the green buttons with a black cross to zoom in, on the green button with a dash to zoom out, or on the green arrows for adjacent maps.


METAR-TAF: